This site, now in its 22nd season, is a labour of love and fun from one of Ottawa's most avid time trialists and number crunchers. It adheres to and is permitted by the laws of Canada, promotes the objectives of every bicycle club whose results are shown, and is donated free of charge by myself for your enjoyment and usage. If you would like results from series you ride in to be shown here, give me (celia@drmath.ca) a shout!
NOTE that this site had to be quickly moved to a new server with a new version of Perl. Unfortunately the way of interacting with the web form has changed, so I'll have to do some reprogramming to get the buttons and search boxes working. Meanwhile the links work fine and you can always add query specifications into the URL! :-)


Index Page
ATT OTT WTT AATT CFCTT VVVTT
Help resultformat:
Case-sensitive

OBC Open TT Series - 2012-Jun-28 - 15km (Rockliffe Pkwy) (EvtFactor = 0.9183)

Ottawa Weather (18:00): Mostly Cloudy. Temperature: 29°C, Humidity: 44%, Dew Point: 16°C, Wind: SSW 13km/h, Pressure: 100.3kPa, Vis: 10km, Humidex: 34.
Ottawa Weather (19:00): Mainly Sunny. Temperature: 27°C, Humidity: 53%, Dew Point: 17°C, Wind: S 17 gust 28km/h, Pressure: 100.3kPa, Vis: 10km, Humidex: 32.
Ottawa Weather (20:00): Mostly Cloudy. Temperature: 25°C, Humidity: 54%, Dew Point: 16°C, Wind: S 14km/h, Pressure: 100.3kPa, Vis: 10km, Humidex: 30.



Despite the favourably low air pressure, it was not an easy night due the south winds. Often the later riders get the benefit of diminishing winds, but that was not the case tonight! First place Douglas van den Ham (19:22) with a season-series performance ratio of .9518 was 19 seconds slower than his best this year and 20 seconds slower than his database best of 18:59 from 2011-Aug-25. Glen Rendall was out for his first OBC time trial of 2012, at 19:45, 43 seconds off of his all-time best of 19:02 set in 2004-Jul-29. Congratulations go to third placed Matthew Surch was pleased to set a new personal database best of 20:01 with his 8.48% season-series improvement! Curiously enough, all three of the top women had season-series bests, perhaps partly due to getting through the open part of the course before the south winds picked up. Tricia Spooner was first with 22:11, her best time so far this season, though more than a minute slower than her database best of 21:09 which was set on 2010-Aug-19. Wendy Blagdon did 23:32, a minute and 8 seconds off of her best of 22:24 from 2007-Aug-30, while Amanda Jones (24:08) was third. Of the top three women, Amanda was closest to her database best of 23:45 from 2011-Sep-08. Finally, congratulations to the 18 people who improved upon their previous database best, especially to Sebastién Bouchard and Paul Comeau who improved by more than 10%.

These results were posted on the OBC site circa 09:30 on 2012-Jun-28 and are available here for your added pleasure and analysis.

(Lest complaints about me just lazily sucking in the results surface, I wish to make it perfectly clear that I would gladly do the data entry, getting the results up within a few of hours of the event, as history shows that I did for the WTT series for the decade beginning in 1998, and for the OTT series from 1999-2002 and again in 2006. The OBC Board however, not only won't let me volunteer here, but strangely enough they actually expelled me from the OBC for donating this time trial web site to you !)




 
 

BESTS?
 
1 van den Ham, Douglas  NTF 19:22 46.472 1/100 U40M 1/16 0.9518
2 Rendall, Glen  TTC 19:45 45.570 2/100 U50M 1/22  
3 Surch, Matthew  TTC 20:01 44.963 3/100 U40M 2/16 1.0848
4 Dal-Cin, Matteo  --- 20:02 44.925 4/100 U30M 1/11  
5 Proulx, Steve  CYC 20:03 44.888 5/100 U50M 2/22 0.9802
6 Pérès, Erwan TBR 20:08 44.702 6/100 U50M 3/22 1.1375
7 Radford, Iain --- 20:11 44.591 7/100 U40M 3/16 0.9950
8 Parniak, Robert  TTC 20:12 44.554 8/100 U40M 4/16 0.9205
Sudac, Rick  OBC/RWR 20:12 44.554 8/100 U70M 1/8 0.9657
10 Bollt, Erik OBC 20:31 43.867 10/100 U50M 4/22 1.0904
Katz, Joel  OBC/RWR 20:31 43.867 10/100 U60M 1/19 1.0395
12 Datars, Paul  OBC/RWR 20:35 43.725 12/100 U60M 2/19 0.9903
13 Michel, Alexandre  TTC 20:37 43.654 13/100 U40M 5/16 0.9106
14 Brazeau, Marc --- 20:46 43.339 14/100 U40M 6/16 1.1622
15 Gagnon, Alexandre  OBC 20:49 43.235 15/100 U30M 2/11 0.9412
16 Sugden, David OBC/RDO 20:51 43.165 16/100 U50M 5/22 1.0487
17 Campbell, Colin  OBC 21:04 42.722 17/100 U60M 3/19 0.9672
18 Diaz, Rodrigo  OBC 21:05 42.688 18/100 U40M 7/16 0.9171
Labelle, Marc-Antoine OBC 21:05 42.688 18/100 U30M 3/11 1.1414
20 Mullington, Chris WQW 21:07 42.620 20/100 U60M 4/19 0.9976
21 McAneney, Paul --- 21:08 42.587 21/100 U50M 6/22 0.9649
22 Tremblay, Stephane --- 21:21 42.155 22/100 U50M 7/22  
23 Zappe, Erich RWR 21:22 42.122 23/100 U60M 5/19 1.0071
24 Gee, Derek  --- 21:33 41.763 24/100 U17M 1/4 0.8053
25 Till, Michael --- 21:35 41.699 25/100 U60M 6/19 0.9977
26 Christie, Greg  OBC/RWR 21:39 41.570 26/100 U60M 7/19  
27 Dorego, Jean-Louis OBC 21:43 41.443 27/100 U70M 2/8 1.0279
28 Rapp, Michael OBC 21:48 41.284 28/100 U50M 8/22 1.0489
29 Roy, Eric --- 21:51 41.190 29/100 U40M 8/16  
30 Lacasse, Jeremie  OBC 21:54 41.096 30/100 U17M 2/4 1.0115
31 Parkinson, Scott OBC 21:58 40.971 31/100 U50M 9/22 1.0485
32 Armstrong, Brian OBC 22:09 40.632 32/100 U50M 10/22 0.9932
33 Spooner, Tricia  SRC 22:12 40.541 33/100 U50F 1/5 1.0786
34 Sargent, Larry OBC 22:14 40.480 34/100 U60M 8/19 1.0410
35 Hicks, Bob  OBC 22:23 40.208 35/100 U70M 3/8 1.0044
36 Davis, Doug --- 22:39 39.735 36/100 U50M 11/22 1.0222
37 Larson, Eric RWR 22:40 39.706 37/100 U50M 12/22 0.9825
38 Grace, Darrin  EUR 22:51 39.387 38/100 U50M 13/22 0.9761
39 Manjikian, Sevak OBC 22:53 39.330 39/100 U50M 14/22 0.9464
40 Moerman, Bram  OBC 22:55 39.273 40/100 U70M 4/8 0.8948
41 Page, Graham OBC/NTF 22:58 39.187 41/100 U30M 4/11 1.0044
42 Hess, Detlef OBC 22:59 39.159 42/100 U60M 9/19 1.0219
43 Brown, Andrew TTC 23:02 39.074 43/100 U40M 9/16 0.9239
44 Voyer, Christian DMD 23:09 38.877 44/100 U50M 15/22 0.8978
45 Mullin, Phil --- 23:10 38.849 45/100 U40M 10/16 0.8959
46 Châtelain-Lacasse, Samuel --- 23:12 38.793 46/100 U17M 3/4 0.9533
Drouin, Marcel OBC 23:12 38.793 46/100 U50M 16/22 0.9638
48 Morvan, Jacques  OBC 23:17 38.654 48/100 U70M 5/8 0.9024
49 Lacopia, Tony  FC 23:28 38.352 49/100 U30M 5/11 1.0280
50 Kerckhoff, Hermann  ABC 23:29 38.325 50/100 U80M 1/3 1.0021
51 Blagdon, Wendy  OBC 23:32 38.244 51/100 U50F 2/5 1.1169
52 Comeau, Paul OBC 23:33 38.217 52/100 U60M 10/19  
53 Pehleman, Bob  OBC 23:35 38.163 53/100 U60M 11/19  
54 Deschamps, Martin WQW 23:36 38.136 54/100 U40M 11/16 0.9277
55 Ramirez, Rolando  --- 23:37 38.109 55/100 U50M 17/22 0.9480
56 Joinette, Vincent --- 23:41 38.001 56/100 U19M 1/2 0.9542
57 Burge, Larry  OBC 23:42 37.975 57/100 U50M 18/22 1.0428
Sylvestre-Williams, David OBC 23:42 37.975 57/100 U19M 2/2 0.9340
59 Yaeger, Dave  OBC 23:51 37.736 59/100 U60M 12/19 0.9264
60 Reid, George OBC 23:52 37.709 60/100 U60M 13/19 1.0317
61 Imbrogno, Giorgio  OBC 23:57 37.578 61/100 U70M 6/8 1.0617
62 Bouchard, Sebastién OBC 24:03 37.422 62/100 U30M 6/11 1.1688
63 Fenerty, Keith OBC 24:08 37.293 63/100 U50M 19/22 1.0336
Jones, Amanda OBC 24:08 37.293 63/100 U40F 1/2 1.0678
65 Cousineau, Tiz OBC 24:14 37.139 65/100 U30M 7/11 1.0397
66 Pazdzior, Ellen  OBC 24:15 37.113 66/100 U60F 1/5  
67 Vadeboncoeur, Jacinthe  OBC 24:16 37.088 67/100 U60F 2/5 1.5890
68 Appotive, Eric FC 24:17 37.062 68/100 U60M 14/19 1.0694
69 Déry, Nicolas  OBC 24:21 36.961 69/100 U40M 12/16 0.9715
70 Gilchrist, Ryan  OBC 24:27 36.810 70/100 U50M 20/22 0.9939
Hall, David  OBC 24:27 36.810 70/100 U60M 15/19 1.0394
72 Mroz, Geoff OBC 24:33 36.660 72/100 U40M 13/16 0.9207
73 Carrier, Damien --- 24:34 36.635 73/100 U50M 21/22 0.9898
74 Harcourt, Douglas OBC 24:39 36.511 74/100 U40M 14/16  
75 Medaglia, Jeremy OBC 24:48 36.290 75/100 U30M 8/11 0.8950
76 Johnson, Byron  OBC 24:49 36.266 76/100 U70M 7/8 0.9879
77 Datars, Sally OBC 24:50 36.242 77/100 U60F 3/5 1.1214
78 Kramer, Mark OBC 24:51 36.217 78/100 U40M 15/16 1.0060
79 Marleau, Dianne  OBC 24:57 36.072 79/100 U60F 4/5 0.9372
Weiner, Lorne
(kept upright and kept going after rear-ending Geoffrey Wright - Keep your head up everybody!)
OBC 24:57 36.072 79/100 U70M 8/8  
81 Liechti, Hans-Peter OBC 25:21 35.503 81/100 U60M 16/19  
82 Dore, Morley OBC 25:23 35.456 82/100 U80M 2/3 1.0521
83 Coveney, Shane  OBC 25:26 35.387 83/100 U50M 22/22 1.0379
King, Dustin --- 25:26 35.387 83/100 U17M 4/4 0.8544
85 Johnson, Laura  OBC 25:45 34.951 85/100 U40F 2/2 1.1358
86 Jaber, Abdul OBC 26:05 34.505 86/100 U30M 9/11 0.9809
87 Slaunwhite, Patricia  OBC 26:10 34.395 87/100 U50F 3/5 0.9886
88 Douglas, Mark  OBC 26:37 33.813 88/100 U60M 17/19 0.9249
89 Easton, Glenn OBC 26:48 33.582 89/100 U60M 18/19 0.9325
90 Chase, Jasmine  OBC 26:50 33.540 90/100 U17F 1/1  
91 Ajersch, Mary  OBC 27:08 33.170 91/100 U80F 1/1 1.0892
Kern, Monika --- 27:08 33.170 91/100 U50F 4/5 1.0130
93 Perkins, Cherylin  OBC 27:31 32.707 93/100 U50F 5/5 1.0367
94 McInnis, Celia 
(riding one-legged was pretty slow into the south wind in the upwad 6-7km - just 21-28km/h there!)
ABC/CYF 27:58 32.181 94/100 U60F 5/5 0.7760
95 Janusauskas, Vytas 
(wrong time! - he sung as he passed Celia and she did not pass him!)
OBC 29:58 30.033 95/100 U60M 19/19 0.5923
96 LeBrun, Robert OBC 32:45 27.481 96/100 U40M 16/16 1.0309
97 Wright, Geoffrey 
(missed his start by one minute and got rear-ended by another time trialist in the last kilometer! Geoffrey stopped to check his bike and then resumed.)
OBC 35:19 25.484 97/100 U90M 1/1 0.8295
98 Burdett, Avery  OBC DNF   98/100 U80M 3/3  
Cornel, Logan  TTC DNF   98/100 U30M 10/11  
Lister, Adam OBC DNF   98/100 U30M 10/11  
 
Average Speed of all of the above 97 finishes (1455km in 37:55:31):38.365
>>>Average of the Average Speeds for these 97 finishes38.789<<<
 

The number of data records shown above is 100
The server processing of your query took: 0 wallclock secs ( 0.04 usr + 0.02 sys = 0.06 CPU)

Thanks to our Helpers: Michel Bernier, Neil Farish, Leona Gray, Alex McKnight, Hans Posthuma, Jess Raymond, Stephanie Rees.

     


Apr 6 (Good Friday) Apr 16 (10km) Apr 23 (10km) (Canceled - Cold Drizzle) Apr 30 (10km)
May 1 (10km) May 3 May 7 (10km) May 8 (10km) May 10 May 14 (10km) May 15 May 15 (10km) May 17 May 22 May 22 (10km) May 24 May 28 (10km) May 29 May 29 (10km) May 31
Jun 3 (40km) Jun 4 (10km) Jun 5 Jun 5 Jun 7 Jun 11 (10km) Jun 12 Jun 12 Jun 14 Jun 18 (10km) Jun 19 Jun 19 Jun 21 Jun 25 (10km) Jun 26 Jun 26
  Jun 28  
Jul 2 (10km) Jul 3 Jul 3 Jul 5 Jul 8 (40km) Jul 9 Jul 10 Jul 10 Jul 12 Jul 16 Jul 17 Jul 17 Jul 19 Jul 22 (40km) Jul 23 (Cancelled - Thunderstorm) Jul 24 Jul 24 Jul 26 Jul 30 Jul 31 Jul 31
Aug 2 Aug 5 (40km) Aug 6 Aug 7 Aug 7 Aug 9 Aug 12 (40km) Aug 13 Aug 14 Aug 14 Aug 16 Aug 20 Aug 21 Aug 21 Aug 23 Aug 28 Aug 28 (Invitational) Aug 30
Sep 2 (40km) Sep 4 Sep 6 Sep 9 (40km) Sep 11 Sep 13 Sep 18 Sep 25

OTT Rankings
3 Best Speeds     3 Best Speeds by category
WTT Rankings for All Participants
4 Best Speeds (≥4 WTT, ≤1 10km)     4 Best Speeds (≥4 WTT, ≤1 10km) by category
OTT Best Three 15km Rankings
Overall     by category     age-Hcap Female   age-Hcap Male
[OWA]TT BAR Ranking
Overall     by category     Rider "Consistency-Graph"
ABC BAR Ranking
Overall     by category     Rider "Consistency-Graph"
Other years
TT Calculator All TT People All TT events
ABC Home VVV Home
CKAP GOLD MEDAL
Other Links

Please send your comments and suggestions to: Celia McInnis
Copyright © 1998-2021 Celia McInnis. All rights reserved. Links are welcomed.